sensor_id;sensor_type;location;lat;lon;timestamp;P1;durP1;ratioP1;P2;durP2;ratioP2
7166;SDS011;3625;51.762;14.320;2023-05-16T00:01:57;7.53;;;6.83;;
7166;SDS011;3625;51.762;14.320;2023-05-16T00:04:26;7.07;;;6.30;;
7166;SDS011;3625;51.762;14.320;2023-05-16T00:06:55;7.40;;;6.67;;
7166;SDS011;3625;51.762;14.320;2023-05-16T00:09:23;7.60;;;6.90;;
7166;SDS011;3625;51.762;14.320;2023-05-16T00:11:52;7.73;;;6.90;;
7166;SDS011;3625;51.762;14.320;2023-05-16T00:14:20;7.50;;;6.80;;
7166;SDS011;3625;51.762;14.320;2023-05-16T00:16:53;6.77;;;6.23;;
7166;SDS011;3625;51.762;14.320;2023-05-16T00:19:24;7.00;;;6.40;;
7166;SDS011;3625;51.762;14.320;2023-05-16T00:21:53;7.17;;;6.47;;
7166;SDS011;3625;51.762;14.320;2023-05-16T00:24:21;8.13;;;7.40;;
7166;SDS011;3625;51.762;14.320;2023-05-16T00:26:50;6.60;;;6.10;;
7166;SDS011;3625;51.762;14.320;2023-05-16T00:29:19;7.80;;;7.13;;
7166;SDS011;3625;51.762;14.320;2023-05-16T00:31:49;6.80;;;6.30;;
7166;SDS011;3625;51.762;14.320;2023-05-16T00:34:19;6.83;;;6.23;;
7166;SDS011;3625;51.762;14.320;2023-05-16T00:36:51;7.43;;;6.83;;
7166;SDS011;3625;51.762;14.320;2023-05-16T00:39:19;7.07;;;6.47;;
7166;SDS011;3625;51.762;14.320;2023-05-16T00:41:48;7.97;;;7.17;;
7166;SDS011;3625;51.762;14.320;2023-05-16T00:44:16;7.90;;;7.20;;
7166;SDS011;3625;51.762;14.320;2023-05-16T00:46:45;7.67;;;6.90;;
7166;SDS011;3625;51.762;14.320;2023-05-16T00:49:14;7.23;;;6.63;;
7166;SDS011;3625;51.762;14.320;2023-05-16T00:51:43;8.33;;;7.63;;
7166;SDS011;3625;51.762;14.320;2023-05-16T00:54:12;7.90;;;7.30;;
7166;SDS011;3625;51.762;14.320;2023-05-16T00:56:41;8.73;;;7.83;;
7166;SDS011;3625;51.762;14.320;2023-05-16T00:59:10;8.60;;;7.90;;
7166;SDS011;3625;51.762;14.320;2023-05-16T01:01:39;8.17;;;7.47;;
7166;SDS011;3625;51.762;14.320;2023-05-16T01:04:11;8.97;;;8.07;;
7166;SDS011;3625;51.762;14.320;2023-05-16T01:06:41;8.40;;;7.70;;
7166;SDS011;3625;51.762;14.320;2023-05-16T01:09:11;8.40;;;7.70;;
7166;SDS011;3625;51.762;14.320;2023-05-16T01:11:42;8.60;;;7.90;;
7166;SDS011;3625;51.762;14.320;2023-05-16T01:14:21;8.70;;;7.90;;
7166;SDS011;3625;51.762;14.320;2023-05-16T01:17:06;8.43;;;7.63;;
7166;SDS011;3625;51.762;14.320;2023-05-16T01:19:51;7.90;;;7.30;;
7166;SDS011;3625;51.762;14.320;2023-05-16T01:22:34;8.40;;;7.70;;
7166;SDS011;3625;51.762;14.320;2023-05-16T01:25:31;9.07;;;8.17;;
7166;SDS011;3625;51.762;14.320;2023-05-16T01:28:24;8.63;;;7.73;;
7166;SDS011;3625;51.762;14.320;2023-05-16T01:30:54;8.63;;;7.83;;
7166;SDS011;3625;51.762;14.320;2023-05-16T01:33:23;9.77;;;8.77;;
7166;SDS011;3625;51.762;14.320;2023-05-16T01:35:54;9.07;;;8.17;;
7166;SDS011;3625;51.762;14.320;2023-05-16T01:38:35;9.37;;;8.57;;
7166;SDS011;3625;51.762;14.320;2023-05-16T01:41:12;9.07;;;8.00;;
7166;SDS011;3625;51.762;14.320;2023-05-16T01:43:51;9.17;;;7.97;;
7166;SDS011;3625;51.762;14.320;2023-05-16T01:46:29;8.93;;;8.23;;
7166;SDS011;3625;51.762;14.320;2023-05-16T01:49:08;9.57;;;8.63;;
7166;SDS011;3625;51.762;14.320;2023-05-16T01:51:44;9.20;;;8.20;;
7166;SDS011;3625;51.762;14.320;2023-05-16T01:54:20;8.87;;;8.10;;
7166;SDS011;3625;51.762;14.320;2023-05-16T01:56:56;9.00;;;8.10;;
7166;SDS011;3625;51.762;14.320;2023-05-16T01:59:28;9.27;;;8.47;;
7166;SDS011;3625;51.762;14.320;2023-05-16T02:01:58;9.63;;;8.83;;
7166;SDS011;3625;51.762;14.320;2023-05-16T02:04:27;9.50;;;8.60;;
7166;SDS011;3625;51.762;14.320;2023-05-16T02:06:56;8.83;;;8.03;;
7166;SDS011;3625;51.762;14.320;2023-05-16T02:09:26;9.33;;;8.43;;
7166;SDS011;3625;51.762;14.320;2023-05-16T02:11:54;8.33;;;7.63;;
7166;SDS011;3625;51.762;14.320;2023-05-16T02:14:23;9.23;;;7.87;;
7166;SDS011;3625;51.762;14.320;2023-05-16T02:16:53;8.60;;;7.90;;
7166;SDS011;3625;51.762;14.320;2023-05-16T02:19:21;8.63;;;7.93;;
7166;SDS011;3625;51.762;14.320;2023-05-16T02:21:50;8.83;;;8.13;;
7166;SDS011;3625;51.762;14.320;2023-05-16T02:24:18;8.43;;;7.73;;
7166;SDS011;3625;51.762;14.320;2023-05-16T02:26:47;8.60;;;7.80;;
7166;SDS011;3625;51.762;14.320;2023-05-16T02:29:16;8.50;;;7.80;;
7166;SDS011;3625;51.762;14.320;2023-05-16T02:31:45;9.23;;;8.40;;
7166;SDS011;3625;51.762;14.320;2023-05-16T02:34:15;8.40;;;7.67;;
7166;SDS011;3625;51.762;14.320;2023-05-16T02:36:43;9.60;;;8.67;;
7166;SDS011;3625;51.762;14.320;2023-05-16T02:39:12;8.87;;;7.97;;
7166;SDS011;3625;51.762;14.320;2023-05-16T02:41:42;9.37;;;8.43;;
7166;SDS011;3625;51.762;14.320;2023-05-16T02:44:11;8.13;;;7.43;;
7166;SDS011;3625;51.762;14.320;2023-05-16T02:46:40;8.30;;;7.60;;
7166;SDS011;3625;51.762;14.320;2023-05-16T02:49:08;8.63;;;7.83;;
7166;SDS011;3625;51.762;14.320;2023-05-16T02:51:38;9.40;;;8.50;;
7166;SDS011;3625;51.762;14.320;2023-05-16T02:54:07;8.87;;;8.10;;
7166;SDS011;3625;51.762;14.320;2023-05-16T02:56:35;9.03;;;8.27;;
7166;SDS011;3625;51.762;14.320;2023-05-16T02:59:04;8.70;;;7.90;;
7166;SDS011;3625;51.762;14.320;2023-05-16T03:01:33;9.90;;;9.00;;
7166;SDS011;3625;51.762;14.320;2023-05-16T03:04:03;8.10;;;7.30;;
7166;SDS011;3625;51.762;14.320;2023-05-16T03:06:32;9.10;;;8.20;;
7166;SDS011;3625;51.762;14.320;2023-05-16T03:09:02;10.07;;;9.10;;
7166;SDS011;3625;51.762;14.320;2023-05-16T03:11:30;11.10;;;10.10;;
7166;SDS011;3625;51.762;14.320;2023-05-16T03:14:00;11.83;;;10.60;;
7166;SDS011;3625;51.762;14.320;2023-05-16T03:16:29;10.33;;;9.37;;
7166;SDS011;3625;51.762;14.320;2023-05-16T03:18:58;10.70;;;9.70;;
7166;SDS011;3625;51.762;14.320;2023-05-16T03:21:27;11.90;;;10.70;;
7166;SDS011;3625;51.762;14.320;2023-05-16T03:23:55;11.03;;;10.03;;
7166;SDS011;3625;51.762;14.320;2023-05-16T03:26:25;12.07;;;10.97;;
7166;SDS011;3625;51.762;14.320;2023-05-16T03:28:57;10.73;;;9.73;;
7166;SDS011;3625;51.762;14.320;2023-05-16T03:31:26;11.57;;;10.50;;
7166;SDS011;3625;51.762;14.320;2023-05-16T03:33:54;11.60;;;10.60;;
7166;SDS011;3625;51.762;14.320;2023-05-16T03:36:22;11.00;;;10.00;;
7166;SDS011;3625;51.762;14.320;2023-05-16T03:38:52;12.20;;;10.90;;
7166;SDS011;3625;51.762;14.320;2023-05-16T03:41:20;11.43;;;10.23;;
7166;SDS011;3625;51.762;14.320;2023-05-16T03:43:50;10.40;;;9.50;;
7166;SDS011;3625;51.762;14.320;2023-05-16T03:46:18;12.63;;;11.50;;
7166;SDS011;3625;51.762;14.320;2023-05-16T03:48:47;12.20;;;11.00;;
7166;SDS011;3625;51.762;14.320;2023-05-16T03:51:16;12.57;;;11.37;;
7166;SDS011;3625;51.762;14.320;2023-05-16T03:53:58;12.33;;;11.17;;
7166;SDS011;3625;51.762;14.320;2023-05-16T03:56:26;12.77;;;11.47;;
7166;SDS011;3625;51.762;14.320;2023-05-16T03:58:56;12.20;;;11.03;;
7166;SDS011;3625;51.762;14.320;2023-05-16T04:01:24;13.57;;;12.37;;
7166;SDS011;3625;51.762;14.320;2023-05-16T04:03:53;12.90;;;11.63;;
7166;SDS011;3625;51.762;14.320;2023-05-16T04:06:22;12.97;;;11.87;;
7166;SDS011;3625;51.762;14.320;2023-05-16T04:09:04;12.73;;;11.43;;
7166;SDS011;3625;51.762;14.320;2023-05-16T04:11:47;13.13;;;11.83;;
7166;SDS011;3625;51.762;14.320;2023-05-16T04:14:18;13.10;;;11.73;;
7166;SDS011;3625;51.762;14.320;2023-05-16T04:16:46;14.80;;;13.40;;
7166;SDS011;3625;51.762;14.320;2023-05-16T04:19:15;13.63;;;12.30;;
7166;SDS011;3625;51.762;14.320;2023-05-16T04:21:44;13.40;;;12.10;;
7166;SDS011;3625;51.762;14.320;2023-05-16T04:24:13;14.27;;;12.13;;
7166;SDS011;3625;51.762;14.320;2023-05-16T04:26:41;13.50;;;12.30;;
7166;SDS011;3625;51.762;14.320;2023-05-16T04:29:10;13.97;;;12.67;;
7166;SDS011;3625;51.762;14.320;2023-05-16T04:31:39;14.03;;;12.73;;
7166;SDS011;3625;51.762;14.320;2023-05-16T04:34:08;13.10;;;11.97;;
7166;SDS011;3625;51.762;14.320;2023-05-16T04:36:37;13.90;;;12.70;;
7166;SDS011;3625;51.762;14.320;2023-05-16T04:39:06;14.93;;;13.33;;
7166;SDS011;3625;51.762;14.320;2023-05-16T04:41:35;14.37;;;12.97;;
7166;SDS011;3625;51.762;14.320;2023-05-16T04:44:03;16.33;;;14.73;;
7166;SDS011;3625;51.762;14.320;2023-05-16T04:46:32;15.10;;;13.70;;
7166;SDS011;3625;51.762;14.320;2023-05-16T04:49:02;16.07;;;14.47;;
7166;SDS011;3625;51.762;14.320;2023-05-16T04:51:30;16.23;;;14.73;;
7166;SDS011;3625;51.762;14.320;2023-05-16T04:53:59;15.87;;;14.27;;
7166;SDS011;3625;51.762;14.320;2023-05-16T04:56:27;15.90;;;14.30;;
7166;SDS011;3625;51.762;14.320;2023-05-16T04:58:56;14.83;;;13.43;;
7166;SDS011;3625;51.762;14.320;2023-05-16T05:01:24;14.70;;;13.20;;
7166;SDS011;3625;51.762;14.320;2023-05-16T05:03:53;15.70;;;14.20;;
7166;SDS011;3625;51.762;14.320;2023-05-16T05:06:23;15.33;;;13.83;;
7166;SDS011;3625;51.762;14.320;2023-05-16T05:08:52;14.80;;;13.50;;
7166;SDS011;3625;51.762;14.320;2023-05-16T05:11:21;14.10;;;12.70;;
7166;SDS011;3625;51.762;14.320;2023-05-16T05:13:49;13.60;;;12.40;;
7166;SDS011;3625;51.762;14.320;2023-05-16T05:16:19;13.90;;;12.60;;
7166;SDS011;3625;51.762;14.320;2023-05-16T05:18:48;13.57;;;12.17;;
7166;SDS011;3625;51.762;14.320;2023-05-16T05:21:17;14.37;;;12.87;;
7166;SDS011;3625;51.762;14.320;2023-05-16T05:23:47;14.33;;;12.80;;
7166;SDS011;3625;51.762;14.320;2023-05-16T05:26:16;14.53;;;12.90;;
7166;SDS011;3625;51.762;14.320;2023-05-16T05:28:44;14.83;;;13.33;;
7166;SDS011;3625;51.762;14.320;2023-05-16T05:31:22;13.65;;;12.23;;
7166;SDS011;3625;51.762;14.320;2023-05-16T05:33:51;15.30;;;13.80;;
7166;SDS011;3625;51.762;14.320;2023-05-16T05:36:20;15.27;;;13.73;;
7166;SDS011;3625;51.762;14.320;2023-05-16T05:38:49;14.43;;;12.98;;
7166;SDS011;3625;51.762;14.320;2023-05-16T05:41:18;17.00;;;13.43;;
7166;SDS011;3625;51.762;14.320;2023-05-16T05:43:47;15.55;;;13.82;;
7166;SDS011;3625;51.762;14.320;2023-05-16T05:46:15;14.25;;;12.85;;
7166;SDS011;3625;51.762;14.320;2023-05-16T05:48:44;15.30;;;13.70;;
7166;SDS011;3625;51.762;14.320;2023-05-16T05:51:12;15.20;;;13.30;;
7166;SDS011;3625;51.762;14.320;2023-05-16T05:53:41;13.82;;;12.30;;
7166;SDS011;3625;51.762;14.320;2023-05-16T05:56:11;16.20;;;13.38;;
7166;SDS011;3625;51.762;14.320;2023-05-16T05:58:41;15.73;;;14.13;;
7166;SDS011;3625;51.762;14.320;2023-05-16T06:01:10;18.23;;;14.73;;
7166;SDS011;3625;51.762;14.320;2023-05-16T06:03:39;14.80;;;13.30;;
7166;SDS011;3625;51.762;14.320;2023-05-16T06:06:08;14.63;;;13.03;;
7166;SDS011;3625;51.762;14.320;2023-05-16T06:08:36;13.52;;;12.18;;
7166;SDS011;3625;51.762;14.320;2023-05-16T06:11:05;15.77;;;14.17;;
7166;SDS011;3625;51.762;14.320;2023-05-16T06:13:35;13.77;;;12.30;;
7166;SDS011;3625;51.762;14.320;2023-05-16T06:16:04;14.07;;;12.67;;
7166;SDS011;3625;51.762;14.320;2023-05-16T06:18:35;15.15;;;13.30;;
7166;SDS011;3625;51.762;14.320;2023-05-16T06:21:03;14.38;;;12.98;;
7166;SDS011;3625;51.762;14.320;2023-05-16T06:23:32;14.20;;;12.80;;
7166;SDS011;3625;51.762;14.320;2023-05-16T06:26:01;13.00;;;11.70;;
7166;SDS011;3625;51.762;14.320;2023-05-16T06:28:30;14.37;;;12.97;;
7166;SDS011;3625;51.762;14.320;2023-05-16T06:31:00;16.10;;;14.37;;
7166;SDS011;3625;51.762;14.320;2023-05-16T06:33:28;15.07;;;13.47;;
7166;SDS011;3625;51.762;14.320;2023-05-16T06:35:57;14.13;;;12.73;;
7166;SDS011;3625;51.762;14.320;2023-05-16T06:38:25;15.00;;;13.53;;
7166;SDS011;3625;51.762;14.320;2023-05-16T06:40:57;15.65;;;14.05;;
7166;SDS011;3625;51.762;14.320;2023-05-16T06:43:25;14.37;;;12.97;;
7166;SDS011;3625;51.762;14.320;2023-05-16T06:45:54;14.27;;;12.40;;
7166;SDS011;3625;51.762;14.320;2023-05-16T06:48:24;12.50;;;11.20;;
7166;SDS011;3625;51.762;14.320;2023-05-16T06:50:52;12.47;;;11.27;;
7166;SDS011;3625;51.762;14.320;2023-05-16T06:53:21;13.43;;;11.67;;
7166;SDS011;3625;51.762;14.320;2023-05-16T06:55:49;14.03;;;12.03;;
7166;SDS011;3625;51.762;14.320;2023-05-16T06:58:17;13.03;;;11.73;;
7166;SDS011;3625;51.762;14.320;2023-05-16T07:00:47;12.73;;;11.43;;
7166;SDS011;3625;51.762;14.320;2023-05-16T07:03:16;13.10;;;11.80;;
7166;SDS011;3625;51.762;14.320;2023-05-16T07:05:46;12.97;;;11.73;;
7166;SDS011;3625;51.762;14.320;2023-05-16T07:08:18;13.03;;;11.43;;
7166;SDS011;3625;51.762;14.320;2023-05-16T07:10:46;11.73;;;10.63;;
7166;SDS011;3625;51.762;14.320;2023-05-16T07:13:15;11.37;;;10.27;;
7166;SDS011;3625;51.762;14.320;2023-05-16T07:15:43;11.87;;;10.57;;
7166;SDS011;3625;51.762;14.320;2023-05-16T07:18:12;14.47;;;12.57;;
7166;SDS011;3625;51.762;14.320;2023-05-16T07:20:41;12.90;;;11.50;;
7166;SDS011;3625;51.762;14.320;2023-05-16T07:23:10;12.53;;;11.23;;
7166;SDS011;3625;51.762;14.320;2023-05-16T07:25:39;12.40;;;11.10;;
7166;SDS011;3625;51.762;14.320;2023-05-16T07:28:08;13.27;;;11.87;;
7166;SDS011;3625;51.762;14.320;2023-05-16T07:30:37;12.87;;;10.90;;
7166;SDS011;3625;51.762;14.320;2023-05-16T07:33:05;12.17;;;10.97;;
7166;SDS011;3625;51.762;14.320;2023-05-16T07:35:34;12.77;;;11.13;;
7166;SDS011;3625;51.762;14.320;2023-05-16T07:38:02;12.67;;;11.13;;
7166;SDS011;3625;51.762;14.320;2023-05-16T07:40:32;13.33;;;11.60;;
7166;SDS011;3625;51.762;14.320;2023-05-16T07:43:01;12.97;;;9.73;;
7166;SDS011;3625;51.762;14.320;2023-05-16T07:45:29;13.90;;;10.37;;
7166;SDS011;3625;51.762;14.320;2023-05-16T07:47:58;14.33;;;10.87;;
7166;SDS011;3625;51.762;14.320;2023-05-16T07:50:26;12.63;;;11.23;;
7166;SDS011;3625;51.762;14.320;2023-05-16T07:52:55;12.57;;;11.13;;
7166;SDS011;3625;51.762;14.320;2023-05-16T07:55:24;11.83;;;10.63;;
7166;SDS011;3625;51.762;14.320;2023-05-16T07:57:54;12.73;;;10.30;;
7166;SDS011;3625;51.762;14.320;2023-05-16T08:00:23;11.90;;;10.20;;
7166;SDS011;3625;51.762;14.320;2023-05-16T08:02:51;12.07;;;10.50;;
7166;SDS011;3625;51.762;14.320;2023-05-16T08:05:20;12.07;;;10.00;;
7166;SDS011;3625;51.762;14.320;2023-05-16T08:07:49;11.20;;;10.00;;
7166;SDS011;3625;51.762;14.320;2023-05-16T08:10:18;11.03;;;9.60;;
7166;SDS011;3625;51.762;14.320;2023-05-16T08:12:46;12.50;;;9.33;;
7166;SDS011;3625;51.762;14.320;2023-05-16T08:15:16;9.68;;;8.68;;
7166;SDS011;3625;51.762;14.320;2023-05-16T08:17:45;9.73;;;8.73;;
7166;SDS011;3625;51.762;14.320;2023-05-16T08:20:13;11.00;;;9.85;;
7166;SDS011;3625;51.762;14.320;2023-05-16T08:22:42;10.37;;;9.17;;
7166;SDS011;3625;51.762;14.320;2023-05-16T08:25:10;10.33;;;8.70;;
7166;SDS011;3625;51.762;14.320;2023-05-16T08:27:39;10.50;;;9.57;;
7166;SDS011;3625;51.762;14.320;2023-05-16T08:30:08;10.30;;;9.20;;
7166;SDS011;3625;51.762;14.320;2023-05-16T08:32:39;10.75;;;9.65;;
7166;SDS011;3625;51.762;14.320;2023-05-16T08:35:08;8.82;;;7.70;;
7166;SDS011;3625;51.762;14.320;2023-05-16T08:37:38;10.53;;;9.20;;
7166;SDS011;3625;51.762;14.320;2023-05-16T08:40:07;9.88;;;8.00;;
7166;SDS011;3625;51.762;14.320;2023-05-16T08:42:37;8.47;;;7.30;;
7166;SDS011;3625;51.762;14.320;2023-05-16T08:45:09;10.90;;;8.27;;
7166;SDS011;3625;51.762;14.320;2023-05-16T08:47:40;9.07;;;7.57;;
7166;SDS011;3625;51.762;14.320;2023-05-16T08:50:11;10.32;;;7.82;;
7166;SDS011;3625;51.762;14.320;2023-05-16T08:52:45;8.60;;;7.63;;
7166;SDS011;3625;51.762;14.320;2023-05-16T08:55:19;9.13;;;7.70;;
7166;SDS011;3625;51.762;14.320;2023-05-16T08:57:49;12.57;;;7.87;;
7166;SDS011;3625;51.762;14.320;2023-05-16T09:00:18;9.77;;;8.13;;
7166;SDS011;3625;51.762;14.320;2023-05-16T09:02:49;9.83;;;7.53;;
7166;SDS011;3625;51.762;14.320;2023-05-16T09:05:20;11.93;;;7.57;;
7166;SDS011;3625;51.762;14.320;2023-05-16T09:07:50;11.50;;;7.60;;
7166;SDS011;3625;51.762;14.320;2023-05-16T09:10:19;10.10;;;8.00;;
7166;SDS011;3625;51.762;14.320;2023-05-16T09:12:48;8.15;;;6.97;;
7166;SDS011;3625;51.762;14.320;2023-05-16T09:15:17;10.35;;;7.82;;
7166;SDS011;3625;51.762;14.320;2023-05-16T09:17:47;11.38;;;7.13;;
7166;SDS011;3625;51.762;14.320;2023-05-16T09:20:18;11.23;;;7.38;;
7166;SDS011;3625;51.762;14.320;2023-05-16T09:22:51;8.32;;;6.75;;
7166;SDS011;3625;51.762;14.320;2023-05-16T09:25:22;12.32;;;7.80;;
7166;SDS011;3625;51.762;14.320;2023-05-16T09:27:54;7.28;;;6.57;;
7166;SDS011;3625;51.762;14.320;2023-05-16T09:30:27;7.45;;;6.65;;
7166;SDS011;3625;51.762;14.320;2023-05-16T09:32:57;8.80;;;6.93;;
7166;SDS011;3625;51.762;14.320;2023-05-16T09:35:27;7.60;;;6.65;;
7166;SDS011;3625;51.762;14.320;2023-05-16T09:38:13;9.10;;;7.28;;
7166;SDS011;3625;51.762;14.320;2023-05-16T09:40:43;10.07;;;7.13;;
7166;SDS011;3625;51.762;14.320;2023-05-16T09:43:13;7.75;;;6.57;;
7166;SDS011;3625;51.762;14.320;2023-05-16T09:45:44;10.00;;;7.43;;
7166;SDS011;3625;51.762;14.320;2023-05-16T09:48:14;7.70;;;6.25;;
7166;SDS011;3625;51.762;14.320;2023-05-16T09:50:49;7.00;;;6.15;;
7166;SDS011;3625;51.762;14.320;2023-05-16T09:53:26;7.28;;;6.38;;
7166;SDS011;3625;51.762;14.320;2023-05-16T09:56:02;7.25;;;6.03;;
7166;SDS011;3625;51.762;14.320;2023-05-16T09:58:33;7.63;;;5.95;;
7166;SDS011;3625;51.762;14.320;2023-05-16T10:01:04;10.73;;;6.93;;
7166;SDS011;3625;51.762;14.320;2023-05-16T10:03:34;11.07;;;6.65;;
7166;SDS011;3625;51.762;14.320;2023-05-16T10:06:07;9.00;;;6.85;;
7166;SDS011;3625;51.762;14.320;2023-05-16T10:08:40;6.38;;;5.63;;
7166;SDS011;3625;51.762;14.320;2023-05-16T10:11:10;8.75;;;6.82;;
7166;SDS011;3625;51.762;14.320;2023-05-16T10:13:40;9.32;;;6.72;;
7166;SDS011;3625;51.762;14.320;2023-05-16T10:16:10;6.57;;;5.97;;
7166;SDS011;3625;51.762;14.320;2023-05-16T10:18:41;8.02;;;6.32;;
7166;SDS011;3625;51.762;14.320;2023-05-16T10:21:13;7.90;;;5.82;;
7166;SDS011;3625;51.762;14.320;2023-05-16T10:23:46;8.23;;;6.22;;
7166;SDS011;3625;51.762;14.320;2023-05-16T10:26:18;9.60;;;6.55;;
7166;SDS011;3625;51.762;14.320;2023-05-16T10:28:49;9.30;;;5.10;;
7166;SDS011;3625;51.762;14.320;2023-05-16T10:31:18;11.70;;;6.15;;
7166;SDS011;3625;51.762;14.320;2023-05-16T10:33:48;6.70;;;5.60;;
7166;SDS011;3625;51.762;14.320;2023-05-16T10:36:18;9.27;;;5.90;;
7166;SDS011;3625;51.762;14.320;2023-05-16T10:38:47;5.60;;;5.05;;
7166;SDS011;3625;51.762;14.320;2023-05-16T10:41:17;6.20;;;5.40;;
7166;SDS011;3625;51.762;14.320;2023-05-16T10:43:54;5.93;;;5.22;;
7166;SDS011;3625;51.762;14.320;2023-05-16T10:46:25;8.77;;;6.15;;
7166;SDS011;3625;51.762;14.320;2023-05-16T10:48:55;9.15;;;6.68;;
7166;SDS011;3625;51.762;14.320;2023-05-16T10:54:12;8.77;;;6.95;;
7166;SDS011;3625;51.762;14.320;2023-05-16T10:56:45;7.90;;;6.13;;
7166;SDS011;3625;51.762;14.320;2023-05-16T10:59:23;6.55;;;5.95;;
7166;SDS011;3625;51.762;14.320;2023-05-16T11:01:54;8.90;;;6.80;;
7166;SDS011;3625;51.762;14.320;2023-05-16T11:04:24;5.97;;;5.40;;
7166;SDS011;3625;51.762;14.320;2023-05-16T11:07:18;9.18;;;5.93;;
7166;SDS011;3625;51.762;14.320;2023-05-16T11:10:03;6.50;;;5.90;;
7166;SDS011;3625;51.762;14.320;2023-05-16T11:12:35;7.28;;;5.68;;
7166;SDS011;3625;51.762;14.320;2023-05-16T11:15:19;5.82;;;5.20;;
7166;SDS011;3625;51.762;14.320;2023-05-16T11:18:02;7.30;;;5.70;;
7166;SDS011;3625;51.762;14.320;2023-05-16T11:20:33;6.90;;;5.47;;
7166;SDS011;3625;51.762;14.320;2023-05-16T11:23:24;7.18;;;6.47;;
7166;SDS011;3625;51.762;14.320;2023-05-16T11:25:54;6.32;;;5.72;;
7166;SDS011;3625;51.762;14.320;2023-05-16T11:28:26;6.40;;;4.82;;
7166;SDS011;3625;51.762;14.320;2023-05-16T11:30:56;6.35;;;5.75;;
7166;SDS011;3625;51.762;14.320;2023-05-16T11:33:29;5.25;;;4.75;;
7166;SDS011;3625;51.762;14.320;2023-05-16T11:36:04;7.55;;;5.22;;
7166;SDS011;3625;51.762;14.320;2023-05-16T11:38:39;6.00;;;5.35;;
7166;SDS011;3625;51.762;14.320;2023-05-16T11:41:09;8.32;;;6.28;;
7166;SDS011;3625;51.762;14.320;2023-05-16T11:43:41;6.97;;;5.85;;
7166;SDS011;3625;51.762;14.320;2023-05-16T11:46:12;5.25;;;4.75;;
7166;SDS011;3625;51.762;14.320;2023-05-16T11:48:42;8.52;;;5.95;;
7166;SDS011;3625;51.762;14.320;2023-05-16T11:51:13;6.63;;;5.40;;
7166;SDS011;3625;51.762;14.320;2023-05-16T11:53:47;5.80;;;5.30;;
7166;SDS011;3625;51.762;14.320;2023-05-16T11:56:16;6.78;;;6.18;;
7166;SDS011;3625;51.762;14.320;2023-05-16T11:58:45;6.35;;;5.78;;
7166;SDS011;3625;51.762;14.320;2023-05-16T12:01:13;6.28;;;5.68;;
7166;SDS011;3625;51.762;14.320;2023-05-16T12:03:42;5.68;;;5.28;;
7166;SDS011;3625;51.762;14.320;2023-05-16T12:06:11;5.72;;;5.10;;
7166;SDS011;3625;51.762;14.320;2023-05-16T12:08:49;5.88;;;5.22;;
7166;SDS011;3625;51.762;14.320;2023-05-16T12:11:18;5.78;;;5.20;;
7166;SDS011;3625;51.762;14.320;2023-05-16T12:14:01;5.65;;;5.15;;
7166;SDS011;3625;51.762;14.320;2023-05-16T12:16:29;5.93;;;5.43;;
7166;SDS011;3625;51.762;14.320;2023-05-16T12:18:59;5.22;;;4.80;;
7166;SDS011;3625;51.762;14.320;2023-05-16T12:21:28;5.10;;;4.63;;
7166;SDS011;3625;51.762;14.320;2023-05-16T12:23:58;5.50;;;5.00;;
7166;SDS011;3625;51.762;14.320;2023-05-16T12:26:28;5.57;;;4.90;;
7166;SDS011;3625;51.762;14.320;2023-05-16T12:28:59;5.50;;;4.88;;
7166;SDS011;3625;51.762;14.320;2023-05-16T12:31:29;5.45;;;4.95;;
7166;SDS011;3625;51.762;14.320;2023-05-16T12:33:58;8.00;;;5.38;;
7166;SDS011;3625;51.762;14.320;2023-05-16T12:36:30;5.00;;;4.60;;
7166;SDS011;3625;51.762;14.320;2023-05-16T12:39:02;6.30;;;5.20;;
7166;SDS011;3625;51.762;14.320;2023-05-16T12:41:38;4.55;;;4.18;;
7166;SDS011;3625;51.762;14.320;2023-05-16T12:44:12;4.93;;;4.38;;
7166;SDS011;3625;51.762;14.320;2023-05-16T12:46:46;4.70;;;4.30;;
7166;SDS011;3625;51.762;14.320;2023-05-16T12:49:18;5.05;;;4.55;;
7166;SDS011;3625;51.762;14.320;2023-05-16T12:51:49;7.13;;;4.38;;
7166;SDS011;3625;51.762;14.320;2023-05-16T12:54:20;5.57;;;4.72;;
7166;SDS011;3625;51.762;14.320;2023-05-16T12:56:49;6.45;;;4.22;;
7166;SDS011;3625;51.762;14.320;2023-05-16T12:59:17;4.80;;;4.20;;
7166;SDS011;3625;51.762;14.320;2023-05-16T13:01:46;4.00;;;3.70;;
7166;SDS011;3625;51.762;14.320;2023-05-16T13:04:14;5.80;;;4.20;;
7166;SDS011;3625;51.762;14.320;2023-05-16T13:06:45;5.60;;;5.10;;
7166;SDS011;3625;51.762;14.320;2023-05-16T13:09:26;5.47;;;4.97;;
7166;SDS011;3625;51.762;14.320;2023-05-16T13:11:58;5.20;;;4.70;;
7166;SDS011;3625;51.762;14.320;2023-05-16T13:14:27;4.78;;;4.38;;
7166;SDS011;3625;51.762;14.320;2023-05-16T13:16:57;5.00;;;4.60;;
7166;SDS011;3625;51.762;14.320;2023-05-16T13:19:25;5.20;;;3.88;;
7166;SDS011;3625;51.762;14.320;2023-05-16T13:21:57;4.45;;;4.13;;
7166;SDS011;3625;51.762;14.320;2023-05-16T13:24:27;4.55;;;4.15;;
7166;SDS011;3625;51.762;14.320;2023-05-16T13:26:56;6.35;;;3.83;;
7166;SDS011;3625;51.762;14.320;2023-05-16T13:29:25;4.30;;;3.83;;
7166;SDS011;3625;51.762;14.320;2023-05-16T13:31:54;4.18;;;3.88;;
7166;SDS011;3625;51.762;14.320;2023-05-16T13:34:23;4.22;;;3.83;;
7166;SDS011;3625;51.762;14.320;2023-05-16T13:36:51;4.90;;;3.88;;
7166;SDS011;3625;51.762;14.320;2023-05-16T13:39:20;4.63;;;4.05;;
7166;SDS011;3625;51.762;14.320;2023-05-16T13:41:50;4.68;;;4.20;;
7166;SDS011;3625;51.762;14.320;2023-05-16T13:44:19;4.70;;;3.95;;
7166;SDS011;3625;51.762;14.320;2023-05-16T13:46:48;4.32;;;3.90;;
7166;SDS011;3625;51.762;14.320;2023-05-16T13:49:17;4.75;;;3.80;;
7166;SDS011;3625;51.762;14.320;2023-05-16T13:51:46;4.30;;;3.67;;
7166;SDS011;3625;51.762;14.320;2023-05-16T13:54:14;3.75;;;3.45;;
7166;SDS011;3625;51.762;14.320;2023-05-16T13:56:43;3.90;;;3.55;;
7166;SDS011;3625;51.762;14.320;2023-05-16T13:59:13;4.25;;;3.85;;
7166;SDS011;3625;51.762;14.320;2023-05-16T14:02:02;4.07;;;3.67;;
7166;SDS011;3625;51.762;14.320;2023-05-16T14:04:31;3.88;;;3.58;;
7166;SDS011;3625;51.762;14.320;2023-05-16T14:07:00;4.07;;;3.72;;
7166;SDS011;3625;51.762;14.320;2023-05-16T14:09:28;4.57;;;3.72;;
7166;SDS011;3625;51.762;14.320;2023-05-16T14:12:00;4.63;;;3.60;;
7166;SDS011;3625;51.762;14.320;2023-05-16T14:14:30;3.83;;;3.47;;
7166;SDS011;3625;51.762;14.320;2023-05-16T14:16:59;5.90;;;3.72;;
7166;SDS011;3625;51.762;14.320;2023-05-16T14:19:29;4.28;;;3.33;;
7166;SDS011;3625;51.762;14.320;2023-05-16T14:21:58;5.45;;;3.55;;
7166;SDS011;3625;51.762;14.320;2023-05-16T14:24:26;5.63;;;3.75;;
7166;SDS011;3625;51.762;14.320;2023-05-16T14:26:57;3.58;;;3.28;;
7166;SDS011;3625;51.762;14.320;2023-05-16T14:29:26;3.78;;;3.10;;
7166;SDS011;3625;51.762;14.320;2023-05-16T14:31:56;4.35;;;3.20;;
7166;SDS011;3625;51.762;14.320;2023-05-16T14:34:26;3.53;;;3.08;;
7166;SDS011;3625;51.762;14.320;2023-05-16T14:36:55;5.93;;;3.55;;
7166;SDS011;3625;51.762;14.320;2023-05-16T14:39:24;3.70;;;3.40;;
7166;SDS011;3625;51.762;14.320;2023-05-16T14:41:52;6.75;;;3.47;;
7166;SDS011;3625;51.762;14.320;2023-05-16T14:44:21;4.00;;;3.60;;
7166;SDS011;3625;51.762;14.320;2023-05-16T14:46:50;4.93;;;3.30;;
7166;SDS011;3625;51.762;14.320;2023-05-16T14:49:20;9.60;;;3.35;;
7166;SDS011;3625;51.762;14.320;2023-05-16T14:51:48;3.72;;;3.22;;
7166;SDS011;3625;51.762;14.320;2023-05-16T14:54:17;4.72;;;3.03;;
7166;SDS011;3625;51.762;14.320;2023-05-16T14:56:45;4.68;;;3.00;;
7166;SDS011;3625;51.762;14.320;2023-05-16T14:59:14;3.40;;;3.03;;
7166;SDS011;3625;51.762;14.320;2023-05-16T15:01:42;4.30;;;2.92;;
7166;SDS011;3625;51.762;14.320;2023-05-16T15:04:14;6.20;;;3.00;;
7166;SDS011;3625;51.762;14.320;2023-05-16T15:06:44;3.92;;;3.15;;
7166;SDS011;3625;51.762;14.320;2023-05-16T15:09:12;3.60;;;3.30;;
7166;SDS011;3625;51.762;14.320;2023-05-16T15:11:41;4.43;;;3.28;;
7166;SDS011;3625;51.762;14.320;2023-05-16T15:14:09;4.88;;;3.22;;